METAR Data
IDs: Format: Raw Decoded Include TAF

Data at: 0856 UTC 26 Jan 2020

KLSE 260853Z AUTO 30007KT 8SM OVC014 M01/M04 A2994 RMK AO2 SNE18 SLP150 P0000 60000 T10061039 57002
KLSE 260851Z AUTO 30006KT 8SM OVC014 M01/M04 A2994 RMK AO2 SNE18 P0000
KLSE 260819Z AUTO 28005KT 5SM HZ BKN016 OVC027 M01/M03 A2994 RMK AO2 SNE18 P0000 T10061033
KLSE 260811Z AUTO 28006KT 2 1/2SM -SN BKN016 OVC027 M01/M03 A2994 RMK AO2 P0000 T10061033
KLSE 260753Z AUTO 29006KT 3SM -SN OVC016 M01/M03 A2995 RMK AO2 SNE0654B13 SLP152 P0000 T10061033
KLSE 260744Z AUTO 28006KT 2 1/2SM -SN OVC016 M01/M03 A2995 RMK AO2 SNE0654B13 P0000 T10061033
KLSE 260653Z AUTO 26005KT 6SM -SN OVC016 00/M03 A2995 RMK AO2 SNB43 SLP152 P0000 T00001033
KLSE 260553Z AUTO 30005KT 9SM BKN022 OVC039 01/M03 A2994 RMK AO2 SLP150 T00061028 10017 20006 400170006 53004
KLSE 260550Z AUTO 31005KT 9SM BKN022 OVC039 01/M03 A2994 RMK AO2
KLSE 260533Z AUTO 31005KT 9SM SCT022 BKN040 OVC048 01/M03 A2994 RMK AO2 T00061028
KLSE 260453Z AUTO 31006KT 9SM OVC019 01/M03 A2993 RMK AO2 SLP147 T00061028
KLSE 260422Z AUTO 30008KT 9SM OVC016 01/M03 A2993 RMK AO2 T00061028
KLSE 260353Z AUTO 30006KT 9SM OVC013 01/M02 A2993 RMK AO2 SLP146 T00061022
KLSE 260253Z 31006KT 9SM OVC014 01/M02 A2992 RMK AO2 SLP143 T00111022 51003
KLSE 260153Z 30006KT 10SM OVC016 01/M02 A2992 RMK AO2 SLP141 T00111022
KLSE 260053Z 32007KT 10SM OVC018 01/M02 A2991 RMK AO2 SLP140 T00111022
KLSE 252353Z 31009KT 10SM FEW021 OVC050 02/M02 A2990 RMK AO2 SLP136 T00171022 10017 20011 53008
KLSE 252253Z 32009KT 10SM OVC019 02/M02 A2990 RMK AO2 SLP133 T00171022
KLSE 252153Z 32011KT 10SM BKN042 OVC050 02/M02 A2988 RMK AO2 SLP128 T00171022
KLSE 252120Z 32011KT 10SM FEW017 OVC043 02/M02 A2988 RMK AO2 T00171022
KLSE 252053Z 32010KT 10SM BKN018 OVC040 02/M02 A2988 RMK AO2 SLP127 T00171022 55001
KLSE 252026Z 32011KT 10SM FEW018 SCT032 OVC041 02/M02 A2988 RMK AO2 T00171022
KLSE 251953Z 31011KT 10SM OVC015 02/M02 A2987 RMK AO2 SLP126 T00171022
KLSE 251924Z 31010KT 10SM OVC015 01/M02 A2988 RMK AO2 T00111022
KLSE 251853Z 31012KT 10SM OVC014 01/M02 A2988 RMK AO2 SLP127 T00111022
KLSE 251753Z 30010KT 10SM OVC013 01/M02 A2988 RMK AO2 SLP127 60001 T00111022 10011 20006 58000
KLSE 251653Z 31009KT 8SM OVC014 01/M02 A2989 RMK AO2 SLP132 T00111022
KLSE 251553Z 32011KT 10SM OVC014 01/M02 A2988 RMK AO2 SLP129 T00061022
KLSE 251551Z 32010KT 10SM OVC014 01/M02 A2988 RMK AO2
KLSE 251507Z 32010KT 10SM OVC015 01/M02 A2987 RMK AO2 T00061022
KLSE 251453Z 32011KT 9SM OVC014 01/M02 A2987 RMK AO2 SLP126 60001 T00061022 51008
KLSE 251421Z 32010KT 10SM OVC014 01/M02 A2987 RMK AO2 T00061022
KLSE 251353Z 32011KT 9SM OVC017 01/M02 A2987 RMK AO2 SNE22 SLP125 P0001 T00061017
KLSE 251253Z 31013KT 3SM -SN OVC015 01/M02 A2985 RMK AO2 SNB44 SLP119 P0000 T00111017
KLSE 251210Z 31012KT 10SM OVC015 01/M02 A2985 RMK AO2 T00111017
KLSE 251153Z 31012KT 10SM OVC014 01/M02 A2985 RMK AO2 SLP117 60000 70005 T00111017 10017 20011 55001
KLSE 251121Z AUTO 32011KT 10SM BKN014 BKN022 OVC085 01/M01 A2984 RMK AO2 T00111011
KLSE 251053Z AUTO 32009KT 9SM OVC016 01/M01 A2984 RMK AO2 SLP115 T00111011
KLSE 251021Z AUTO 31011KT 6SM BR OVC015 01/M01 A2984 RMK AO2 T00111011
KLSE 250953Z AUTO 32011KT 7SM OVC014 01/M01 A2984 RMK AO2 SNB36E46 SLP115 P0000 T00111011
KLSE 250853Z AUTO 31010KT 10SM OVC012 02/M01 A2985 RMK AO2 SLP117 T00171011 56006
KLSE 250753Z AUTO 32007KT 10SM OVC011 02/M01 A2985 RMK AO2 SLP118 T00171011
KLSE 250653Z AUTO 31009KT 10SM OVC010 02/M01 A2985 RMK AO2 SLP119 T00171006
KLSE 250553Z AUTO 32008KT 10SM OVC011 02/M01 A2987 RMK AO2 SLP124 T00171006 10022 20017 400221006 56006
KLSE 250453Z AUTO 32009KT 9SM OVC010 02/M01 A2987 RMK AO2 SLP125 T00171006
KLSE 250353Z AUTO 33008KT 9SM OVC010 02/M01 A2988 RMK AO2 SLP128 T00171006
KLSE 250253Z 32007KT 10SM OVC010 02/M01 A2989 RMK AO2 SLP131 T00171006 58002
KLSE 250153Z 33009KT 9SM OVC010 02/M01 A2989 RMK AO2 SLP131 T00171006
KLSE 250053Z 33007KT 9SM OVC010 02/M01 A2990 RMK AO2 SLP135 T00171006
KLSE 242353Z 33009KT 8SM OVC011 02/M01 A2989 RMK AO2 SLP133 60000 T00221006 10022 20017 56002
KLSE 242253Z 35006KT 6SM HZ OVC012 02/M01 A2990 RMK AO2 SLP134 T00221006
KLSE 242153Z 33010KT 6SM BR OVC014 02/M01 A2989 RMK AO2 SLP133 T00171006